createdAt,value
2023-02-14T00:02:03.019Z,94.66
2023-02-14T00:04:32.508Z,94.76
2023-02-14T00:07:01.931Z,94.72
2023-02-14T00:09:31.128Z,94.65
2023-02-14T00:12:00.083Z,94.75
2023-02-14T00:14:47.528Z,94.84
2023-02-14T00:17:16.330Z,94.78
2023-02-14T00:19:45.846Z,94.46
2023-02-14T00:22:14.928Z,94.53
2023-02-14T00:24:43.928Z,94.75
2023-02-14T00:27:12.808Z,94.49
2023-02-14T00:29:41.702Z,94.70
2023-02-14T00:32:10.524Z,94.47
2023-02-14T00:34:41.179Z,94.49
2023-02-14T00:37:12.356Z,94.48
2023-02-14T00:39:41.274Z,94.71
2023-02-14T00:42:10.255Z,94.68
2023-02-14T00:44:39.830Z,94.94
2023-02-14T00:47:08.970Z,94.54
2023-02-14T00:49:38.036Z,94.45
2023-02-14T00:52:06.948Z,94.16
2023-02-14T00:54:36.147Z,94.54
2023-02-14T00:57:05.018Z,94.37
2023-02-14T00:59:33.911Z,94.25
2023-02-14T01:02:05.731Z,94.35
2023-02-14T01:04:35.068Z,94.52
2023-02-14T01:07:04.149Z,94.56
2023-02-14T01:09:33.150Z,94.09
2023-02-14T01:12:04.206Z,93.83
2023-02-14T01:14:33.082Z,93.78
2023-02-14T01:17:01.868Z,94.03
2023-02-14T01:19:31.817Z,93.88
2023-02-14T01:22:02.547Z,93.69
2023-02-14T01:24:31.717Z,93.75
2023-02-14T01:27:02.969Z,94.30
2023-02-14T01:29:31.543Z,93.80
2023-02-14T01:32:00.700Z,94.04
2023-02-14T01:34:29.452Z,94.10
2023-02-14T01:36:58.407Z,94.22
2023-02-14T01:39:27.407Z,93.98
2023-02-14T01:41:57.136Z,94.24
2023-02-14T01:44:29.295Z,93.25
2023-02-14T01:46:59.119Z,92.85
2023-02-14T01:49:39.376Z,92.94
2023-02-14T01:52:16.221Z,92.68
2023-02-14T01:54:51.931Z,91.87
2023-02-14T01:57:23.741Z,91.38
2023-02-14T02:00:16.925Z,89.88
2023-02-14T02:02:46.429Z,89.19
2023-02-14T02:05:16.137Z,90.06
2023-02-14T02:07:45.261Z,90.10
2023-02-14T02:10:14.126Z,89.93
2023-02-14T02:12:44.354Z,89.34
2023-02-14T02:15:13.218Z,89.33
2023-02-14T02:18:04.456Z,89.14
2023-02-14T02:20:49.166Z,89.53
2023-02-14T02:23:44.105Z,89.67
2023-02-14T02:26:27.695Z,90.31
2023-02-14T02:29:41.991Z,90.30
2023-02-14T02:32:14.042Z,89.95
2023-02-14T02:35:24.931Z,89.29
2023-02-14T02:37:59.785Z,89.41
2023-02-14T02:40:28.766Z,89.76
2023-02-14T02:43:35.527Z,89.96
2023-02-14T02:46:50.583Z,89.92
2023-02-14T02:50:00.855Z,89.83
2023-02-14T02:52:59.867Z,89.36
2023-02-14T02:56:01.745Z,89.10
2023-02-14T02:58:36.895Z,88.59
2023-02-14T03:01:12.271Z,88.63
2023-02-14T03:04:02.911Z,88.92
2023-02-14T03:06:32.928Z,89.40
2023-02-14T03:09:36.833Z,89.10
2023-02-14T03:12:24.462Z,89.14
2023-02-14T03:15:18.954Z,89.37
2023-02-14T03:18:06.057Z,89.19
2023-02-14T03:20:44.107Z,89.34
2023-02-14T03:23:26.363Z,89.26
2023-02-14T03:26:18.013Z,88.59
2023-02-14T03:28:58.819Z,88.63
2023-02-14T03:31:52.951Z,89.08
2023-02-14T03:34:45.914Z,88.77
2023-02-14T03:37:19.082Z,89.03
2023-02-14T03:40:06.837Z,89.11
2023-02-14T03:42:40.534Z,88.91
2023-02-14T03:45:14.053Z,88.84
2023-02-14T03:47:44.037Z,89.11
2023-02-14T03:50:19.108Z,89.41
2023-02-14T03:52:51.228Z,89.79
2023-02-14T03:55:25.117Z,90.06
2023-02-14T03:58:07.122Z,89.91
2023-02-14T04:00:38.291Z,89.93
2023-02-14T04:03:12.222Z,90.31
2023-02-14T04:05:43.865Z,90.14
2023-02-14T04:08:13.252Z,89.49
2023-02-14T04:10:43.604Z,89.50
2023-02-14T04:13:12.171Z,89.27
2023-02-14T04:15:40.982Z,89.24
2023-02-14T04:18:28.780Z,89.92
2023-02-14T04:20:58.881Z,89.62
2023-02-14T04:23:27.798Z,89.68
2023-02-14T04:25:56.470Z,89.42
2023-02-14T04:28:25.158Z,89.61
2023-02-14T04:30:53.976Z,89.34
2023-02-14T04:33:22.747Z,88.69
2023-02-14T04:35:51.528Z,88.18
2023-02-14T04:38:20.333Z,88.64
2023-02-14T04:40:52.800Z,88.82
2023-02-14T04:43:21.495Z,88.95
2023-02-14T04:45:50.469Z,89.06
2023-02-14T04:48:19.151Z,88.86
2023-02-14T04:50:53.171Z,89.47
2023-02-14T04:53:22.452Z,88.89
2023-02-14T04:55:51.351Z,89.23
2023-02-14T04:58:20.649Z,89.25
2023-02-14T05:00:49.561Z,89.34
2023-02-14T05:03:18.329Z,89.08
2023-02-14T05:05:47.000Z,89.09
2023-02-14T05:08:16.929Z,89.40
2023-02-14T05:10:45.499Z,89.62
2023-02-14T05:13:14.911Z,89.40
2023-02-14T05:15:45.639Z,89.53
2023-02-14T05:18:15.045Z,89.55
2023-02-14T05:20:43.826Z,89.66
2023-02-14T05:23:14.072Z,89.28
2023-02-14T05:25:43.455Z,89.57
2023-02-14T05:28:11.927Z,89.50
2023-02-14T05:30:40.658Z,89.64
2023-02-14T05:33:09.508Z,89.85
2023-02-14T05:35:39.116Z,89.94
2023-02-14T05:38:08.026Z,89.71
2023-02-14T05:40:36.899Z,89.89
2023-02-14T05:43:06.709Z,90.08
2023-02-14T05:45:35.607Z,89.93
2023-02-14T05:48:04.485Z,89.98
2023-02-14T05:50:33.584Z,90.00
2023-02-14T05:53:02.575Z,89.90
2023-02-14T05:55:31.268Z,90.24
2023-02-14T05:57:59.967Z,89.66
2023-02-14T06:00:28.490Z,90.00
2023-02-14T06:02:57.128Z,90.48
2023-02-14T06:05:27.450Z,90.06
2023-02-14T06:07:56.153Z,90.03
2023-02-14T06:10:25.631Z,89.95
2023-02-14T06:12:54.613Z,90.75
2023-02-14T06:15:24.252Z,89.94
2023-02-14T06:17:57.732Z,90.13
2023-02-14T06:20:26.732Z,89.74
2023-02-14T06:22:55.758Z,90.06
2023-02-14T06:25:25.234Z,90.13
2023-02-14T06:27:58.319Z,90.25
2023-02-14T06:30:28.054Z,90.12
2023-02-14T06:32:56.912Z,89.98
2023-02-14T06:35:26.278Z,90.07
2023-02-14T06:37:56.220Z,90.03
2023-02-14T06:43:08.355Z,90.74
2023-02-14T06:45:37.354Z,89.92
2023-02-14T06:48:06.533Z,89.99
2023-02-14T06:50:36.244Z,89.93
2023-02-14T06:58:21.551Z,90.35
2023-02-14T07:00:50.349Z,90.01
2023-02-14T07:03:19.025Z,89.91
2023-02-14T07:05:48.031Z,90.27
2023-02-14T07:08:16.882Z,90.07
2023-02-14T07:10:45.484Z,90.53
2023-02-14T07:13:14.396Z,90.35
2023-02-14T07:15:43.396Z,90.10
2023-02-14T07:18:12.181Z,90.23
2023-02-14T07:20:41.055Z,90.12
2023-02-14T07:23:09.763Z,90.32
2023-02-14T07:25:39.362Z,89.73
2023-02-14T07:28:08.015Z,90.08
2023-02-14T07:30:37.013Z,89.83
2023-02-14T07:33:07.033Z,90.05
2023-02-14T07:35:35.729Z,90.00
2023-02-14T07:38:04.615Z,89.97
2023-02-14T07:40:33.231Z,90.28
2023-02-14T07:43:01.895Z,90.12
2023-02-14T07:45:30.565Z,90.55
2023-02-14T07:48:04.617Z,90.34
2023-02-14T07:50:34.592Z,90.17
2023-02-14T07:53:04.100Z,90.16
2023-02-14T07:55:32.688Z,90.44
2023-02-14T07:58:01.992Z,90.39
2023-02-14T08:00:30.991Z,90.48
2023-02-14T08:02:59.871Z,90.40
2023-02-14T08:05:28.630Z,89.65
2023-02-14T08:07:57.453Z,90.11
2023-02-14T08:10:26.218Z,90.38
2023-02-14T08:13:01.104Z,89.45
2023-02-14T08:15:54.273Z,89.50
2023-02-14T08:18:27.909Z,89.53
2023-02-14T08:20:56.708Z,89.48
2023-02-14T08:23:25.813Z,89.44
2023-02-14T08:25:56.393Z,89.39
2023-02-14T08:28:26.353Z,89.76
2023-02-14T08:30:55.986Z,89.41
2023-02-14T08:33:25.175Z,89.12
2023-02-14T08:35:54.493Z,88.95
2023-02-14T08:38:23.237Z,88.76
2023-02-14T08:40:52.543Z,88.72
2023-02-14T08:43:21.437Z,88.31
2023-02-14T08:45:53.523Z,88.12
2023-02-14T08:48:23.932Z,87.69
2023-02-14T08:50:53.025Z,88.07
2023-02-14T08:53:22.627Z,87.60
2023-02-14T08:55:51.399Z,87.53
2023-02-14T08:58:20.216Z,87.37
2023-02-14T09:00:49.002Z,87.19
2023-02-14T09:03:17.775Z,87.32
2023-02-14T09:05:46.574Z,87.42
2023-02-14T09:08:15.453Z,87.16
2023-02-14T09:10:44.245Z,87.50
2023-02-14T09:13:13.127Z,87.47
2023-02-14T09:15:41.711Z,87.51
2023-02-14T09:18:10.798Z,86.98
2023-02-14T09:20:39.488Z,87.11
2023-02-14T09:23:08.370Z,86.73
2023-02-14T09:25:37.374Z,86.35
2023-02-14T09:28:06.253Z,86.76
2023-02-14T09:30:34.967Z,86.36
2023-02-14T09:33:06.088Z,85.97
2023-02-14T09:35:53.626Z,86.31
2023-02-14T09:38:22.706Z,86.92
2023-02-14T09:40:51.809Z,86.28
2023-02-14T09:43:24.920Z,85.56
2023-02-14T09:45:55.762Z,85.76
2023-02-14T09:48:37.208Z,86.07
2023-02-14T09:51:15.783Z,85.31
2023-02-14T09:53:51.292Z,85.67
2023-02-14T09:56:51.429Z,85.44
2023-02-14T09:59:30.126Z,85.30
2023-02-14T10:02:23.016Z,85.01
2023-02-14T10:05:06.388Z,84.58
2023-02-14T10:08:34.986Z,85.23
2023-02-14T10:11:09.917Z,84.91
2023-02-14T10:13:46.383Z,85.35
2023-02-14T10:16:27.687Z,85.18
2023-02-14T10:19:01.783Z,85.24
2023-02-14T10:21:39.377Z,85.31
2023-02-14T10:24:20.769Z,84.76
2023-02-14T10:26:51.188Z,84.32
2023-02-14T10:29:21.304Z,84.27
2023-02-14T10:32:00.806Z,84.45
2023-02-14T10:34:41.754Z,83.40
2023-02-14T10:37:48.926Z,83.13
2023-02-14T10:40:32.030Z,83.85
2023-02-14T10:43:31.238Z,83.51
2023-02-14T10:46:04.763Z,82.51
2023-02-14T10:49:11.204Z,82.26
2023-02-14T10:51:54.636Z,82.73
2023-02-14T10:54:26.392Z,81.71
2023-02-14T10:57:01.746Z,81.54
2023-02-14T10:59:33.385Z,82.61
2023-02-14T11:02:02.987Z,81.78
2023-02-14T11:04:31.988Z,81.40
2023-02-14T11:07:00.598Z,81.73
2023-02-14T11:09:29.789Z,81.24
2023-02-14T11:12:00.625Z,81.77
2023-02-14T11:14:38.365Z,81.38
2023-02-14T11:17:29.933Z,80.93
2023-02-14T11:20:22.639Z,80.90
2023-02-14T11:22:51.364Z,80.29
2023-02-14T11:25:27.789Z,79.72
2023-02-14T11:28:01.478Z,79.65
2023-02-14T11:30:43.230Z,79.86
2023-02-14T11:33:23.062Z,79.43
2023-02-14T11:35:52.423Z,79.53
2023-02-14T11:38:31.488Z,79.22
2023-02-14T11:41:00.595Z,78.96
2023-02-14T11:43:40.639Z,78.00
2023-02-14T11:46:17.042Z,77.74
2023-02-14T11:49:24.608Z,78.09
2023-02-14T11:51:55.608Z,78.35
2023-02-14T11:54:40.446Z,79.08
2023-02-14T11:57:36.773Z,78.67
2023-02-14T12:00:27.383Z,78.87
2023-02-14T12:02:56.553Z,78.51
2023-02-14T12:05:31.372Z,78.47
2023-02-14T12:08:08.964Z,78.45
2023-02-14T12:10:39.308Z,77.36
2023-02-14T12:13:10.637Z,76.99
2023-02-14T12:15:50.201Z,77.09
2023-02-14T12:18:38.935Z,76.99
2023-02-14T12:21:32.400Z,76.59
2023-02-14T12:24:16.760Z,76.03
2023-02-14T12:27:25.342Z,76.97
2023-02-14T12:30:08.134Z,77.14
2023-02-14T12:32:36.875Z,76.64
2023-02-14T12:35:47.357Z,76.60
2023-02-14T12:38:31.605Z,76.94
2023-02-14T12:41:24.448Z,76.71
2023-02-14T12:44:01.006Z,76.45
2023-02-14T12:46:42.613Z,75.62
2023-02-14T12:49:50.251Z,75.88
2023-02-14T12:52:22.058Z,76.16
2023-02-14T12:55:25.053Z,75.65
2023-02-14T12:58:00.733Z,75.63
2023-02-14T13:01:00.340Z,74.93
2023-02-14T13:04:11.486Z,74.80
2023-02-14T13:07:03.489Z,74.51
2023-02-14T13:10:04.358Z,74.25
2023-02-14T13:12:44.404Z,75.07
2023-02-14T13:15:29.714Z,75.56
2023-02-14T13:18:13.421Z,74.97
2023-02-14T13:20:56.540Z,74.09
2023-02-14T13:23:30.645Z,74.23
2023-02-14T13:26:12.864Z,74.67
2023-02-14T13:28:53.130Z,74.36
2023-02-14T13:31:22.212Z,74.14
2023-02-14T13:33:55.348Z,74.16
2023-02-14T13:36:25.427Z,74.04
2023-02-14T13:38:56.238Z,73.93
2023-02-14T13:41:26.846Z,73.94
2023-02-14T13:44:01.945Z,73.60
2023-02-14T13:46:30.603Z,73.36
2023-02-14T13:49:19.791Z,73.69
2023-02-14T13:52:04.638Z,74.03
2023-02-14T13:54:45.045Z,74.18
2023-02-14T13:57:34.540Z,74.28
2023-02-14T14:00:38.794Z,73.90
2023-02-14T14:03:11.782Z,73.24
2023-02-14T14:05:50.177Z,73.33
2023-02-14T14:08:21.643Z,73.56
2023-02-14T14:11:02.198Z,74.51
2023-02-14T14:13:43.064Z,75.27
2023-02-14T14:16:33.959Z,75.61
2023-02-14T14:19:07.414Z,76.06
2023-02-14T14:21:57.990Z,76.84
2023-02-14T14:24:29.176Z,76.65
2023-02-14T14:27:03.749Z,76.57
2023-02-14T14:29:41.002Z,77.20
2023-02-14T14:32:18.725Z,77.40
2023-02-14T14:34:57.647Z,76.43
2023-02-14T14:37:29.710Z,76.51
2023-02-14T14:40:01.265Z,77.35
2023-02-14T14:42:35.478Z,77.58
2023-02-14T14:45:17.643Z,77.39
2023-02-14T14:47:47.802Z,77.53
2023-02-14T14:50:30.523Z,77.71
2023-02-14T14:53:09.791Z,78.39
2023-02-14T14:55:41.663Z,78.90
2023-02-14T14:58:30.433Z,78.45
2023-02-14T15:00:59.922Z,78.17
2023-02-14T15:03:29.796Z,77.99
2023-02-14T15:06:17.835Z,78.12
2023-02-14T15:08:48.481Z,78.37
2023-02-14T15:11:47.392Z,77.37
2023-02-14T15:14:21.381Z,76.71
2023-02-14T15:17:15.345Z,76.88
2023-02-14T15:19:47.717Z,76.95
2023-02-14T15:22:19.906Z,77.26
2023-02-14T15:24:49.536Z,77.83
2023-02-14T15:27:26.229Z,78.22
2023-02-14T15:29:59.451Z,77.71
2023-02-14T15:32:33.897Z,77.72
2023-02-14T15:35:04.115Z,77.88
2023-02-14T15:37:33.305Z,78.35
2023-02-14T15:40:02.398Z,78.91
2023-02-14T15:42:34.148Z,78.96
2023-02-14T15:45:28.039Z,78.73
2023-02-14T15:47:58.039Z,77.77
2023-02-14T15:50:35.162Z,78.20
2023-02-14T15:53:18.582Z,77.93
2023-02-14T15:55:50.086Z,78.10
2023-02-14T15:58:22.935Z,78.09
2023-02-14T16:00:53.816Z,78.25
2023-02-14T16:03:25.478Z,78.27
2023-02-14T16:05:55.584Z,78.59
2023-02-14T16:08:30.092Z,79.21
2023-02-14T16:11:25.633Z,79.33
2023-02-14T16:13:54.754Z,80.42
2023-02-14T16:16:25.040Z,80.52
2023-02-14T16:18:57.663Z,80.33
2023-02-14T16:21:33.589Z,80.75
2023-02-14T16:24:08.412Z,81.25
2023-02-14T16:26:47.429Z,81.65
2023-02-14T16:29:18.006Z,81.76
2023-02-14T16:32:15.329Z,81.20
2023-02-14T16:34:47.706Z,80.92
2023-02-14T16:37:23.637Z,80.44
2023-02-14T16:39:54.888Z,80.27
2023-02-14T16:42:26.236Z,80.21
2023-02-14T16:44:56.778Z,81.09
2023-02-14T16:47:28.040Z,81.55
2023-02-14T16:49:58.556Z,81.87
2023-02-14T16:52:30.401Z,82.22
2023-02-14T16:55:00.941Z,81.86
2023-02-14T16:57:39.144Z,81.79
2023-02-14T17:00:10.063Z,81.90
2023-02-14T17:02:39.139Z,82.09
2023-02-14T17:05:12.838Z,82.29
2023-02-14T17:07:44.610Z,82.06
2023-02-14T17:10:19.000Z,82.65
2023-02-14T17:12:48.464Z,82.67
2023-02-14T17:15:19.876Z,82.43
2023-02-14T17:17:51.628Z,82.84
2023-02-14T17:20:22.920Z,82.11
2023-02-14T17:22:54.836Z,82.26
2023-02-14T17:25:29.539Z,81.99
2023-02-14T17:27:59.366Z,81.90
2023-02-14T17:30:29.450Z,81.97
2023-02-14T17:33:00.691Z,81.60
2023-02-14T17:35:30.753Z,81.69
2023-02-14T17:38:01.525Z,81.54
2023-02-14T17:40:32.682Z,81.80
2023-02-14T17:43:03.020Z,81.47
2023-02-14T17:45:33.297Z,81.95
2023-02-14T17:48:04.282Z,80.97
2023-02-14T17:50:37.869Z,81.11
2023-02-14T17:53:09.150Z,81.63
2023-02-14T17:55:38.428Z,81.57
2023-02-14T17:58:10.171Z,81.60
2023-02-14T18:00:40.162Z,81.30
2023-02-14T18:03:16.242Z,81.48
2023-02-14T18:05:45.962Z,81.77
2023-02-14T18:08:21.689Z,81.95
2023-02-14T18:10:51.729Z,82.17
2023-02-14T18:13:22.130Z,82.63
2023-02-14T18:15:54.157Z,82.94
2023-02-14T18:18:24.295Z,82.50
2023-02-14T18:20:56.661Z,82.42
2023-02-14T18:23:28.048Z,81.76
2023-02-14T18:26:02.203Z,81.72
2023-02-14T18:28:34.090Z,81.78
2023-02-14T18:31:13.861Z,81.99
2023-02-14T18:33:48.723Z,82.21
2023-02-14T18:36:25.366Z,82.08
2023-02-14T18:38:57.182Z,82.29
2023-02-14T18:41:32.330Z,82.49
2023-02-14T18:44:09.760Z,82.42
2023-02-14T18:46:41.302Z,82.43
2023-02-14T18:49:14.222Z,82.35
2023-02-14T18:51:46.759Z,82.76
2023-02-14T18:54:19.314Z,82.81
2023-02-14T18:56:51.045Z,82.97
2023-02-14T18:59:28.115Z,83.23
2023-02-14T19:01:58.617Z,83.48
2023-02-14T19:04:32.102Z,83.75
2023-02-14T19:07:05.418Z,83.91
2023-02-14T19:09:40.600Z,84.28
2023-02-14T19:12:13.695Z,84.18
2023-02-14T19:14:44.391Z,84.13
2023-02-14T19:17:19.834Z,84.18
2023-02-14T19:19:53.721Z,83.96
2023-02-14T19:22:25.459Z,83.86
2023-02-14T19:24:56.872Z,84.60
2023-02-14T19:27:28.985Z,84.15
2023-02-14T19:30:03.922Z,83.96
2023-02-14T19:32:34.808Z,83.98
2023-02-14T19:35:08.287Z,84.35
2023-02-14T19:37:48.067Z,84.74
2023-02-14T19:40:19.054Z,84.58
2023-02-14T19:42:52.173Z,84.66
2023-02-14T19:45:26.287Z,84.08
2023-02-14T19:47:55.754Z,84.63
2023-02-14T19:50:26.228Z,84.95
2023-02-14T19:52:58.431Z,85.04
2023-02-14T19:55:29.742Z,85.01
2023-02-14T19:58:00.648Z,84.75
2023-02-14T20:00:31.916Z,84.88
2023-02-14T20:03:03.288Z,85.54
2023-02-14T20:05:34.563Z,85.51
2023-02-14T20:08:12.002Z,85.40
2023-02-14T20:10:45.963Z,85.19
2023-02-14T20:13:18.181Z,85.23
2023-02-14T20:15:51.269Z,85.30
2023-02-14T20:18:33.336Z,85.51
2023-02-14T20:21:09.627Z,85.82
2023-02-14T20:23:47.965Z,85.89
2023-02-14T20:26:23.812Z,86.09
2023-02-14T20:28:59.974Z,86.32
2023-02-14T20:31:33.649Z,86.42
2023-02-14T20:34:08.249Z,86.40
2023-02-14T20:36:40.292Z,86.53
2023-02-14T20:39:14.320Z,86.67
2023-02-14T20:41:49.765Z,86.55
2023-02-14T20:44:24.981Z,87.04
2023-02-14T20:46:57.583Z,87.02
2023-02-14T20:49:32.385Z,86.89
2023-02-14T20:52:09.819Z,86.80
2023-02-14T20:54:43.270Z,87.01
2023-02-14T20:57:14.639Z,87.43
2023-02-14T20:59:50.502Z,87.19
2023-02-14T21:02:22.084Z,87.32
2023-02-14T21:05:01.483Z,87.31
2023-02-14T21:07:32.360Z,87.34
2023-02-14T21:10:04.517Z,87.32
2023-02-14T21:12:35.671Z,87.32
2023-02-14T21:15:12.615Z,87.46
2023-02-14T21:17:46.136Z,87.48
2023-02-14T21:20:20.831Z,87.77
2023-02-14T21:22:52.141Z,87.60
2023-02-14T21:25:26.698Z,88.11
2023-02-14T21:27:58.422Z,87.97
2023-02-14T21:30:31.646Z,88.35
2023-02-14T21:33:02.476Z,88.35
2023-02-14T21:35:36.372Z,88.49
2023-02-14T21:38:09.483Z,88.61
2023-02-14T21:40:40.505Z,88.78
2023-02-14T21:43:11.373Z,89.01
2023-02-14T21:45:55.493Z,89.26
2023-02-14T21:48:46.601Z,89.32
2023-02-14T21:51:20.307Z,89.48
2023-02-14T21:53:51.707Z,89.71
2023-02-14T21:56:23.313Z,89.95
2023-02-14T21:58:55.871Z,90.26
2023-02-14T22:01:29.667Z,90.48
2023-02-14T22:04:00.814Z,90.64
2023-02-14T22:06:30.576Z,91.09
2023-02-14T22:09:02.118Z,91.17
2023-02-14T22:11:32.792Z,91.43
2023-02-14T22:14:03.210Z,91.57
2023-02-14T22:16:33.908Z,91.68
2023-02-14T22:19:04.921Z,91.68
2023-02-14T22:21:34.545Z,91.84
2023-02-14T22:24:04.262Z,91.99
2023-02-14T22:26:43.598Z,92.22
2023-02-14T22:29:13.593Z,92.36
2023-02-14T22:31:43.970Z,92.52
2023-02-14T22:34:14.978Z,92.89
2023-02-14T22:36:43.872Z,93.10
2023-02-14T22:39:15.291Z,92.86
2023-02-14T22:41:44.398Z,93.05
2023-02-14T22:44:13.910Z,93.21
2023-02-14T22:46:43.105Z,93.64
2023-02-14T22:49:12.107Z,93.95
2023-02-14T22:51:43.251Z,94.08
2023-02-14T22:54:16.442Z,94.05
2023-02-14T22:56:47.671Z,94.26
2023-02-14T22:59:24.606Z,94.40
2023-02-14T23:01:54.294Z,94.70
2023-02-14T23:04:25.406Z,94.82
2023-02-14T23:06:54.284Z,94.94
2023-02-14T23:09:24.088Z,95.08
2023-02-14T23:11:52.899Z,95.35
2023-02-14T23:14:40.523Z,95.48
2023-02-14T23:17:17.636Z,95.97
2023-02-14T23:20:05.865Z,95.86
2023-02-14T23:22:37.296Z,95.90
2023-02-14T23:25:13.048Z,95.90
2023-02-14T23:27:44.775Z,96.05
2023-02-14T23:30:16.777Z,96.12
2023-02-14T23:32:45.756Z,96.18
2023-02-14T23:35:15.739Z,96.39
2023-02-14T23:37:49.079Z,96.73
2023-02-14T23:40:18.393Z,96.96
2023-02-14T23:42:47.160Z,97.17
2023-02-14T23:45:39.950Z,96.95
2023-02-14T23:48:08.496Z,97.41
2023-02-14T23:50:37.390Z,97.34
2023-02-14T23:53:06.271Z,97.54
2023-02-14T23:55:34.839Z,97.23
2023-02-14T23:58:03.639Z,96.91
